createdAt,value
2018-06-02T00:02:08.500Z,47.73
2018-06-02T00:04:37.430Z,47.07
2018-06-02T00:07:05.970Z,46.00
2018-06-02T00:09:35.020Z,44.87
2018-06-02T00:12:03.187Z,46.87
2018-06-02T00:14:32.591Z,46.73
2018-06-02T00:17:01.221Z,52.63
2018-06-02T00:19:29.923Z,50.00
2018-06-02T00:21:58.991Z,47.97
2018-06-02T00:24:27.941Z,49.77
2018-06-02T00:26:56.127Z,48.10
2018-06-02T00:29:26.112Z,52.37
2018-06-02T00:31:55.614Z,48.07
2018-06-02T00:34:24.583Z,55.67
2018-06-02T00:36:54.023Z,55.70
2018-06-02T00:39:22.178Z,54.30
2018-06-02T00:41:50.868Z,54.13
2018-06-02T00:44:19.011Z,46.77
2018-06-02T00:46:47.202Z,44.27
2018-06-02T00:49:17.243Z,48.03
2018-06-02T00:51:45.804Z,45.90
2018-06-02T00:54:14.194Z,44.60
2018-06-02T00:56:42.819Z,47.77
2018-06-02T00:59:11.342Z,48.33
2018-06-02T01:01:39.803Z,48.83
2018-06-02T01:04:09.334Z,48.57
2018-06-02T01:06:38.423Z,49.83
2018-06-02T01:09:07.677Z,48.90
2018-06-02T01:11:36.511Z,48.60
2018-06-02T01:14:05.802Z,49.50
2018-06-02T01:16:34.802Z,46.53
2018-06-02T01:19:04.484Z,43.13
2018-06-02T01:21:33.129Z,41.67
2018-06-02T01:24:01.511Z,45.90
2018-06-02T01:26:29.696Z,42.10
2018-06-02T01:28:58.795Z,41.63
2018-06-02T01:31:27.843Z,43.97
2018-06-02T01:33:56.267Z,41.57
2018-06-02T01:36:24.699Z,39.10
2018-06-02T01:38:54.126Z,42.40
2018-06-02T01:41:22.689Z,39.67
2018-06-02T01:43:51.111Z,39.53
2018-06-02T01:46:20.138Z,44.73
2018-06-02T01:48:48.789Z,40.30
2018-06-02T01:51:16.947Z,42.50
2018-06-02T01:53:46.149Z,40.90
2018-06-02T01:56:14.679Z,41.23
2018-06-02T01:58:43.100Z,44.60
2018-06-02T02:01:12.007Z,45.47
2018-06-02T02:03:40.674Z,43.77
2018-06-02T02:06:09.267Z,44.37
2018-06-02T02:08:38.770Z,46.77
2018-06-02T02:11:08.203Z,45.40
2018-06-02T02:13:36.866Z,45.53
2018-06-02T02:16:05.015Z,52.67
2018-06-02T02:18:33.499Z,50.10
2018-06-02T02:21:02.132Z,53.07
2018-06-02T02:23:30.655Z,52.70
2018-06-02T02:25:59.176Z,51.40
2018-06-02T02:28:28.334Z,54.73
2018-06-02T02:30:56.511Z,53.53
2018-06-02T02:33:25.176Z,54.07
2018-06-02T02:35:53.712Z,53.87
2018-06-02T02:38:22.331Z,56.97
2018-06-02T02:40:51.370Z,58.77
2018-06-02T02:43:19.763Z,56.73
2018-06-02T02:45:48.536Z,56.50
2018-06-02T02:48:17.130Z,59.10
2018-06-02T02:50:45.656Z,56.97
2018-06-02T02:53:14.182Z,51.77
2018-06-02T02:55:42.650Z,49.37
2018-06-02T02:58:10.790Z,54.53
2018-06-02T03:00:39.887Z,52.17
2018-06-02T03:03:08.883Z,59.17
2018-06-02T03:05:37.335Z,56.83
2018-06-02T03:08:06.403Z,60.13
2018-06-02T03:10:34.962Z,62.00
2018-06-02T03:13:03.770Z,63.47
2018-06-02T03:15:31.963Z,58.97
2018-06-02T03:18:00.398Z,61.87
2018-06-02T03:20:28.598Z,67.00
2018-06-02T03:22:57.558Z,62.30
2018-06-02T03:25:25.750Z,64.60
2018-06-02T03:27:54.714Z,62.23
2018-06-02T03:30:23.868Z,64.73
2018-06-02T03:32:52.299Z,71.30
2018-06-02T03:35:20.480Z,70.23
2018-06-02T03:37:49.655Z,70.67
2018-06-02T03:40:18.189Z,70.93
2018-06-02T03:42:47.552Z,69.57
2018-06-02T03:45:15.706Z,63.83
2018-06-02T03:47:43.927Z,70.63
2018-06-02T03:50:13.119Z,71.90
2018-06-02T03:52:43.731Z,70.23
2018-06-02T03:55:11.922Z,75.37
2018-06-02T03:57:41.174Z,67.70
2018-06-02T04:00:09.841Z,73.47
2018-06-02T04:02:39.303Z,70.93
2018-06-02T04:05:08.565Z,74.97
2018-06-02T04:07:36.803Z,70.77
2018-06-02T04:10:06.139Z,78.00
2018-06-02T04:12:34.874Z,77.00
2018-06-02T04:15:03.035Z,76.13
2018-06-02T04:17:32.124Z,70.63
2018-06-02T04:20:00.660Z,76.90
2018-06-02T04:22:29.254Z,74.20
2018-06-02T04:24:57.778Z,72.87
2018-06-02T04:27:26.406Z,73.97
2018-06-02T04:29:55.482Z,71.03
2018-06-02T04:32:23.666Z,70.37
2018-06-02T04:34:52.014Z,72.60
2018-06-02T04:37:21.144Z,68.83
2018-06-02T04:39:49.558Z,69.93
2018-06-02T04:42:18.018Z,66.67
2018-06-02T04:44:46.439Z,73.80
2018-06-02T04:47:15.267Z,69.07
2018-06-02T04:49:44.094Z,78.00
2018-06-02T04:52:12.956Z,73.50
2018-06-02T04:54:41.944Z,74.83
2018-06-02T04:57:11.148Z,72.20
2018-06-02T04:59:39.756Z,69.70
2018-06-02T05:02:09.879Z,73.83
2018-06-02T05:04:38.292Z,68.67
2018-06-02T05:07:08.707Z,82.30
2018-06-02T05:09:37.233Z,77.30
2018-06-02T05:12:06.271Z,76.33
2018-06-02T05:14:34.683Z,75.33
2018-06-02T05:17:03.231Z,80.03
2018-06-02T05:22:13.230Z,80.17
2018-06-02T05:24:41.756Z,87.73
2018-06-02T05:27:09.914Z,85.87
2018-06-02T05:29:38.454Z,81.60
2018-06-02T05:32:07.090Z,84.50
2018-06-02T05:34:35.754Z,90.30
2018-06-02T05:37:03.930Z,94.83
2018-06-02T05:39:33.329Z,87.10
2018-06-02T05:42:01.959Z,86.83
2018-06-02T05:44:30.379Z,96.90
2018-06-02T05:46:58.905Z,98.27
2018-06-02T05:49:30.990Z,110.60
2018-06-02T05:51:59.374Z,107.77
2018-06-02T05:54:28.235Z,103.27
2018-06-02T05:56:56.876Z,107.33
2018-06-02T05:59:25.398Z,99.30
2018-06-02T06:01:53.820Z,97.27
2018-06-02T06:04:21.996Z,99.67
2018-06-02T06:06:51.146Z,95.63
2018-06-02T06:09:19.605Z,91.37
2018-06-02T06:11:47.763Z,95.60
2018-06-02T06:14:16.344Z,90.00
2018-06-02T06:16:44.507Z,89.37
2018-06-02T06:19:15.584Z,89.17
2018-06-02T06:21:43.778Z,88.93
2018-06-02T06:24:12.431Z,95.30
2018-06-02T06:26:40.852Z,83.17
2018-06-02T06:29:09.482Z,86.60
2018-06-02T06:31:37.642Z,90.83
2018-06-02T06:34:05.867Z,83.37
2018-06-02T06:36:34.537Z,85.63
2018-06-02T06:39:04.006Z,81.33
2018-06-02T06:41:32.703Z,77.73
2018-06-02T06:44:00.919Z,84.63
2018-06-02T06:46:29.335Z,81.57
2018-06-02T06:48:57.792Z,80.27
2018-06-02T06:51:26.631Z,81.90
2018-06-02T06:53:54.878Z,76.63
2018-06-02T06:56:26.191Z,75.43
2018-06-02T06:58:54.788Z,77.93
2018-06-02T07:01:23.858Z,80.27
2018-06-02T07:03:52.498Z,76.27
2018-06-02T07:06:20.923Z,70.07
2018-06-02T07:08:49.453Z,71.03
2018-06-02T07:11:18.042Z,71.03
2018-06-02T07:13:46.496Z,67.13
2018-06-02T07:16:14.652Z,64.97
2018-06-02T07:18:42.848Z,57.33
2018-06-02T07:21:13.526Z,55.43
2018-06-02T07:23:43.957Z,50.27
2018-06-02T07:26:12.468Z,48.67
2018-06-02T07:28:41.515Z,45.37
2018-06-02T07:31:09.698Z,42.83
2018-06-02T07:33:38.427Z,36.90
2018-06-02T07:36:07.629Z,34.90
2018-06-02T07:38:35.804Z,32.03
2018-06-02T07:41:04.635Z,29.20
2018-06-02T07:43:33.505Z,28.73
2018-06-02T07:46:02.849Z,25.60
2018-06-02T07:48:31.392Z,27.33
2018-06-02T07:51:00.433Z,26.60
2018-06-02T07:53:29.071Z,28.33
2018-06-02T07:55:58.214Z,26.03
2018-06-02T07:58:26.450Z,25.23
2018-06-02T08:00:54.848Z,23.37
2018-06-02T08:03:25.354Z,23.70
2018-06-02T08:05:53.998Z,22.13
2018-06-02T08:08:23.219Z,24.03
2018-06-02T08:10:51.387Z,21.07
2018-06-02T08:13:20.502Z,19.43
2018-06-02T08:15:48.942Z,19.20
2018-06-02T08:18:17.483Z,22.10
2018-06-02T08:20:46.718Z,20.90
2018-06-02T08:23:15.774Z,21.00
2018-06-02T08:25:44.906Z,20.90
2018-06-02T08:28:14.346Z,20.70
2018-06-02T08:30:43.226Z,21.90
2018-06-02T08:33:11.413Z,21.97
2018-06-02T08:35:39.596Z,18.93
2018-06-02T08:38:08.070Z,16.93
2018-06-02T08:40:37.223Z,19.23
2018-06-02T08:43:05.418Z,17.07
2018-06-02T08:45:34.575Z,15.83
2018-06-02T08:48:03.007Z,17.67
2018-06-02T08:50:31.297Z,13.20
2018-06-02T08:53:00.582Z,12.10
2018-06-02T08:55:29.733Z,12.83
2018-06-02T08:57:57.886Z,14.10
2018-06-02T09:00:26.387Z,14.77
2018-06-02T09:02:55.308Z,13.27
2018-06-02T09:05:24.457Z,15.93
2018-06-02T09:07:52.635Z,16.00
2018-06-02T09:10:20.862Z,12.93
2018-06-02T09:12:49.518Z,12.37
2018-06-02T09:15:17.940Z,15.37
2018-06-02T09:17:47.371Z,13.97
2018-06-02T09:20:15.571Z,12.53
2018-06-02T09:22:44.039Z,14.37
2018-06-02T09:25:12.774Z,13.30
2018-06-02T09:27:41.195Z,13.60
2018-06-02T09:30:10.560Z,13.20
2018-06-02T09:32:38.707Z,12.93
2018-06-02T09:35:07.020Z,13.60
2018-06-02T09:37:36.238Z,13.13
2018-06-02T09:40:04.763Z,11.37
2018-06-02T09:42:33.393Z,11.50
2018-06-02T09:45:02.534Z,11.33
2018-06-02T09:47:30.726Z,10.40
2018-06-02T09:49:59.911Z,10.07
2018-06-02T09:52:28.543Z,10.37
2018-06-02T09:54:57.067Z,10.33
2018-06-02T09:57:25.697Z,9.63
2018-06-02T09:59:54.222Z,9.90
2018-06-02T10:02:23.547Z,9.57
2018-06-02T10:04:51.740Z,13.23
2018-06-02T10:07:19.919Z,8.40
2018-06-02T10:09:50.070Z,10.87
2018-06-02T10:12:18.836Z,30.60
2018-06-02T10:14:47.779Z,7.60
2018-06-02T10:17:15.946Z,8.10
2018-06-02T10:19:44.491Z,7.80
2018-06-02T10:22:13.148Z,7.57
2018-06-02T10:24:42.195Z,9.37
2018-06-02T10:27:10.721Z,9.10
2018-06-02T10:29:38.926Z,7.90
2018-06-02T10:32:07.459Z,7.57
2018-06-02T10:34:35.880Z,7.27
2018-06-02T10:37:04.364Z,7.57
2018-06-02T10:39:32.582Z,8.83
2018-06-02T10:42:01.490Z,8.17
2018-06-02T10:44:31.386Z,9.60
2018-06-02T10:46:59.727Z,9.07
2018-06-02T10:49:28.497Z,9.13
2018-06-02T10:51:56.639Z,9.13
2018-06-02T10:54:24.829Z,8.20
2018-06-02T10:56:53.240Z,9.70
2018-06-02T10:59:21.831Z,9.00
2018-06-02T11:01:51.007Z,9.80
2018-06-02T11:04:19.652Z,9.03
2018-06-02T11:06:48.933Z,9.23
2018-06-02T11:09:19.960Z,8.30
2018-06-02T11:11:48.918Z,8.20
2018-06-02T11:14:17.582Z,8.80
2018-06-02T11:16:45.767Z,8.70
2018-06-02T11:19:14.635Z,8.90
2018-06-02T11:21:43.092Z,8.63
2018-06-02T11:24:12.022Z,9.27
2018-06-02T11:26:40.665Z,9.03
2018-06-02T11:29:08.807Z,9.83
2018-06-02T11:31:38.030Z,9.67
2018-06-02T11:34:06.660Z,9.93
2018-06-02T11:36:34.812Z,9.50
2018-06-02T11:39:02.986Z,11.20
2018-06-02T11:41:31.566Z,9.00
2018-06-02T11:43:59.799Z,10.00
2018-06-02T11:46:28.976Z,10.77
2018-06-02T11:48:57.605Z,9.47
2018-06-02T11:51:27.475Z,8.30
2018-06-02T11:53:56.118Z,9.70
2018-06-02T11:56:24.710Z,9.63
2018-06-02T11:58:53.275Z,9.87
2018-06-02T12:01:21.711Z,9.73
2018-06-02T12:03:51.788Z,10.07
2018-06-02T12:06:20.489Z,10.30
2018-06-02T12:08:48.666Z,9.73
2018-06-02T12:11:17.744Z,9.90
2018-06-02T12:13:46.678Z,9.60
2018-06-02T12:16:16.991Z,10.00
2018-06-02T12:18:45.634Z,11.00
2018-06-02T12:21:13.815Z,10.50
2018-06-02T12:23:42.293Z,10.30
2018-06-02T12:26:10.447Z,11.53
2018-06-02T12:28:39.331Z,10.73
2018-06-02T12:31:07.522Z,10.60
2018-06-02T12:33:35.698Z,10.17
2018-06-02T12:36:04.817Z,9.33
2018-06-02T12:38:33.238Z,8.77
2018-06-02T12:41:01.433Z,8.37
2018-06-02T12:43:29.871Z,7.53
2018-06-02T12:45:58.397Z,9.03
2018-06-02T12:48:26.818Z,9.17
2018-06-02T12:50:54.967Z,8.80
2018-06-02T12:53:23.441Z,8.20
2018-06-02T12:55:51.599Z,8.17
2018-06-02T12:58:19.782Z,10.43
2018-06-02T13:00:48.301Z,10.30
2018-06-02T13:03:16.472Z,9.70
2018-06-02T13:05:44.703Z,8.47
2018-06-02T13:08:13.132Z,11.37
2018-06-02T13:10:41.747Z,7.50
2018-06-02T13:13:10.263Z,7.10
2018-06-02T13:15:39.439Z,7.70
2018-06-02T13:18:08.813Z,7.50
2018-06-02T13:20:37.653Z,7.37
2018-06-02T13:23:06.810Z,7.20
2018-06-02T13:25:35.191Z,7.93
2018-06-02T13:28:04.051Z,8.93
2018-06-02T13:30:32.800Z,7.47
2018-06-02T13:33:01.308Z,7.13
2018-06-02T13:35:30.151Z,6.43
2018-06-02T13:37:59.490Z,6.93
2018-06-02T13:40:27.670Z,6.50
2018-06-02T13:42:56.713Z,7.00
2018-06-02T13:45:24.798Z,7.57
2018-06-02T13:47:53.283Z,9.43
2018-06-02T13:50:21.538Z,7.33
2018-06-02T13:52:50.035Z,8.27
2018-06-02T13:55:18.475Z,8.00
2018-06-02T13:57:46.631Z,7.07
2018-06-02T14:00:15.423Z,8.50
2018-06-02T14:02:44.563Z,6.10
2018-06-02T14:05:13.171Z,7.43
2018-06-02T14:07:41.351Z,5.83
2018-06-02T14:10:10.435Z,6.13
2018-06-02T14:12:38.646Z,6.40
2018-06-02T14:15:07.308Z,6.20
2018-06-02T14:17:35.937Z,7.07
2018-06-02T14:20:04.463Z,6.53
2018-06-02T14:22:33.379Z,7.03
2018-06-02T14:25:01.587Z,6.07
2018-06-02T14:27:29.771Z,8.27
2018-06-02T14:29:57.951Z,6.83
2018-06-02T14:32:26.526Z,9.03
2018-06-02T14:34:55.304Z,8.27
2018-06-02T14:37:23.456Z,7.70
2018-06-02T14:39:52.878Z,8.13
2018-06-02T14:42:21.512Z,7.17
2018-06-02T14:44:49.646Z,7.20
2018-06-02T14:47:18.599Z,7.57
2018-06-02T14:49:47.189Z,8.00
2018-06-02T14:52:15.340Z,9.53
2018-06-02T14:54:44.458Z,7.43
2018-06-02T14:57:12.671Z,7.37
2018-06-02T14:59:40.848Z,7.60
2018-06-02T15:02:10.588Z,6.77
2018-06-02T15:04:39.597Z,8.83
2018-06-02T15:07:08.199Z,8.53
2018-06-02T15:09:36.858Z,7.10
2018-06-02T15:12:05.455Z,6.80
2018-06-02T15:14:33.630Z,7.67
2018-06-02T15:17:03.478Z,5.83
2018-06-02T15:19:32.619Z,6.30
2018-06-02T15:22:01.667Z,6.13
2018-06-02T15:24:30.611Z,6.77
2018-06-02T15:26:59.044Z,6.03
2018-06-02T15:29:27.465Z,6.07
2018-06-02T15:31:55.633Z,5.47
2018-06-02T15:34:24.203Z,6.70
2018-06-02T15:36:53.343Z,5.13
2018-06-02T15:39:22.182Z,5.60
2018-06-02T15:41:50.371Z,6.70
2018-06-02T15:44:18.555Z,7.77
2018-06-02T15:46:47.041Z,7.00
2018-06-02T15:49:15.311Z,5.67
2018-06-02T15:51:44.531Z,6.57
2018-06-02T15:54:12.687Z,5.53
2018-06-02T15:56:41.545Z,6.13
2018-06-02T15:59:09.730Z,6.20
2018-06-02T16:01:39.135Z,7.33
2018-06-02T16:04:07.556Z,7.17
2018-06-02T16:06:35.723Z,6.00
2018-06-02T16:09:04.991Z,8.27
2018-06-02T16:11:33.447Z,8.00
2018-06-02T16:14:01.595Z,7.90
2018-06-02T16:16:30.066Z,9.87
2018-06-02T16:18:58.606Z,7.50
2018-06-02T16:21:26.753Z,7.10
2018-06-02T16:23:55.344Z,8.27
2018-06-02T16:26:23.870Z,9.37
2018-06-02T16:28:52.702Z,8.40
2018-06-02T16:31:21.683Z,16.77
2018-06-02T16:33:50.498Z,11.87
2018-06-02T16:36:19.434Z,8.00
2018-06-02T16:38:47.586Z,12.80
2018-06-02T16:41:16.277Z,9.80
2018-06-02T16:43:45.108Z,10.50
2018-06-02T16:46:13.286Z,10.90
2018-06-02T16:48:41.854Z,9.53
2018-06-02T16:51:11.323Z,10.93
2018-06-02T16:53:39.606Z,9.53
2018-06-02T16:56:07.790Z,10.27
2018-06-02T16:58:36.375Z,7.30
2018-06-02T17:01:05.874Z,7.70
2018-06-02T17:03:35.375Z,11.07
2018-06-02T17:06:03.564Z,13.33
2018-06-02T17:08:32.659Z,10.93
2018-06-02T17:11:01.602Z,8.13
2018-06-02T17:13:30.248Z,7.20
2018-06-02T17:15:58.383Z,6.40
2018-06-02T17:18:26.983Z,5.53
2018-06-02T17:20:55.207Z,7.67
2018-06-02T17:23:23.406Z,5.83
2018-06-02T17:25:52.770Z,5.90
2018-06-02T17:28:21.366Z,7.90
2018-06-02T17:30:49.514Z,5.03
2018-06-02T17:33:18.765Z,6.90
2018-06-02T17:35:47.395Z,5.37
2018-06-02T17:38:15.539Z,6.27
2018-06-02T17:40:44.588Z,6.40
2018-06-02T17:43:14.315Z,8.90
2018-06-02T17:45:42.959Z,7.23
2018-06-02T17:48:11.380Z,7.17
2018-06-02T17:50:39.531Z,7.43
2018-06-02T17:53:08.016Z,7.23
2018-06-02T17:55:37.230Z,6.13
2018-06-02T17:58:07.260Z,8.27
2018-06-02T18:00:35.668Z,7.13
2018-06-02T18:03:04.611Z,7.17
2018-06-02T18:05:32.794Z,7.10
2018-06-02T18:08:01.465Z,7.67
2018-06-02T18:10:30.386Z,9.27
2018-06-02T18:12:59.248Z,7.97
2018-06-02T18:15:28.226Z,8.07
2018-06-02T18:17:57.434Z,9.57
2018-06-02T18:20:25.938Z,9.07
2018-06-02T18:22:54.360Z,8.20
2018-06-02T18:25:22.542Z,10.93
2018-06-02T18:27:51.642Z,7.93
2018-06-02T18:30:19.840Z,11.07
2018-06-02T18:32:48.704Z,9.27
2018-06-02T18:35:17.643Z,9.63
2018-06-02T18:37:46.059Z,11.00
2018-06-02T18:40:14.247Z,8.67
2018-06-02T18:42:42.709Z,8.63
2018-06-02T18:45:11.095Z,9.20
2018-06-02T18:47:40.175Z,8.37
2018-06-02T18:50:08.402Z,9.10
2018-06-02T18:52:38.259Z,6.87
2018-06-02T18:55:06.463Z,7.67
2018-06-02T18:57:35.012Z,9.17
2018-06-02T19:00:03.500Z,8.10
2018-06-02T19:02:32.119Z,9.77
2018-06-02T19:05:00.302Z,9.30
2018-06-02T19:07:29.675Z,11.47
2018-06-02T19:09:58.995Z,7.70
2018-06-02T19:12:27.523Z,8.37
2018-06-02T19:14:56.658Z,8.93
2018-06-02T19:17:25.737Z,7.43
2018-06-02T19:19:54.351Z,10.43
2018-06-02T19:22:23.572Z,6.57
2018-06-02T19:24:51.755Z,7.67
2018-06-02T19:27:20.243Z,7.60
2018-06-02T19:29:48.383Z,6.87
2018-06-02T19:32:17.678Z,7.87
2018-06-02T19:34:46.618Z,6.20
2018-06-02T19:37:16.087Z,7.43
2018-06-02T19:39:45.483Z,8.90
2018-06-02T19:42:13.682Z,7.67
2018-06-02T19:44:42.504Z,7.67
2018-06-02T19:47:11.663Z,9.80
2018-06-02T19:49:40.107Z,7.03
2018-06-02T19:52:08.259Z,8.23
2018-06-02T19:54:36.467Z,7.37
2018-06-02T19:57:05.359Z,9.90
2018-06-02T19:59:33.543Z,8.33
2018-06-02T20:02:02.619Z,8.27
2018-06-02T20:04:31.159Z,7.60
2018-06-02T20:06:59.348Z,7.47
2018-06-02T20:09:27.967Z,9.07
2018-06-02T20:11:56.151Z,9.20
2018-06-02T20:14:25.783Z,9.93
2018-06-02T20:16:54.204Z,9.90
2018-06-02T20:19:22.714Z,9.33
2018-06-02T20:21:52.183Z,10.03
2018-06-02T20:24:21.334Z,8.60
2018-06-02T20:26:49.527Z,12.20
2018-06-02T20:29:18.191Z,10.33
2018-06-02T20:31:46.716Z,10.30
2018-06-02T20:34:15.345Z,7.77
2018-06-02T20:36:43.859Z,9.47
2018-06-02T20:39:12.502Z,8.83
2018-06-02T20:41:41.643Z,9.67
2018-06-02T20:44:10.735Z,8.80
2018-06-02T20:46:39.687Z,8.83
2018-06-02T20:49:08.891Z,8.83
2018-06-02T20:51:37.532Z,8.47
2018-06-02T20:54:06.137Z,9.17
2018-06-02T20:56:34.319Z,10.60
2018-06-02T20:59:02.716Z,13.77
2018-06-02T21:01:32.376Z,9.40
2018-06-02T21:04:01.206Z,10.77
2018-06-02T21:06:30.358Z,10.63
2018-06-02T21:08:59.363Z,9.27
2018-06-02T21:11:28.285Z,10.50
2018-06-02T21:13:56.462Z,10.40
2018-06-02T21:16:24.651Z,10.23
2018-06-02T21:18:53.707Z,11.47
2018-06-02T21:21:22.650Z,10.00
2018-06-02T21:23:51.185Z,11.83
2018-06-02T21:26:19.611Z,9.97
2018-06-02T21:28:48.238Z,10.87
2018-06-02T21:31:16.651Z,11.30
2018-06-02T21:33:45.313Z,14.77
2018-06-02T21:36:13.446Z,16.53
2018-06-02T21:38:41.642Z,16.80
2018-06-02T21:41:10.346Z,16.07
2018-06-02T21:43:39.175Z,20.40
2018-06-02T21:46:08.566Z,18.07
2018-06-02T21:48:37.176Z,18.00
2018-06-02T21:51:05.662Z,18.70
2018-06-02T21:53:34.299Z,16.70
2018-06-02T21:56:03.484Z,19.50
2018-06-02T21:58:32.114Z,20.90
2018-06-02T22:01:00.266Z,18.00
2018-06-02T22:03:28.481Z,20.43
2018-06-02T22:05:57.190Z,21.97
2018-06-02T22:08:26.645Z,21.53
2018-06-02T22:10:55.775Z,25.57
2018-06-02T22:13:25.984Z,26.77
2018-06-02T22:15:55.033Z,19.67
2018-06-02T22:18:23.193Z,23.60
2018-06-02T22:20:51.770Z,24.13
2018-06-02T22:23:20.400Z,23.40
2018-06-02T22:25:48.556Z,23.93
2018-06-02T22:28:16.750Z,22.10
2018-06-02T22:30:45.246Z,24.43
2018-06-02T22:33:14.191Z,22.23
2018-06-02T22:35:42.375Z,24.27
2018-06-02T22:38:10.826Z,22.67
2018-06-02T22:40:39.454Z,24.57
2018-06-02T22:43:08.605Z,25.30
2018-06-02T22:45:36.785Z,25.17
2018-06-02T22:48:06.545Z,25.50
2018-06-02T22:50:34.730Z,24.47
2018-06-02T22:53:04.520Z,25.20
2018-06-02T22:55:33.845Z,25.07
2018-06-02T22:58:03.192Z,24.90
2018-06-02T23:00:32.346Z,25.87
2018-06-02T23:03:03.098Z,25.77
2018-06-02T23:05:32.323Z,26.30
2018-06-02T23:08:01.455Z,23.67
2018-06-02T23:10:29.606Z,27.07
2018-06-02T23:12:59.259Z,32.93
2018-06-02T23:15:28.727Z,29.37
2018-06-02T23:17:57.261Z,27.33
2018-06-02T23:20:26.207Z,28.77
2018-06-02T23:22:56.184Z,37.90
2018-06-02T23:25:26.379Z,39.20
2018-06-02T23:27:56.427Z,39.20
2018-06-02T23:30:24.624Z,42.10
2018-06-02T23:32:53.116Z,45.90
2018-06-02T23:35:21.266Z,41.93
2018-06-02T23:37:51.315Z,42.70
2018-06-02T23:40:20.464Z,45.37
2018-06-02T23:42:48.659Z,44.33
2018-06-02T23:45:17.610Z,43.83
2018-06-02T23:47:46.555Z,38.10
2018-06-02T23:50:15.094Z,44.77
2018-06-02T23:52:43.712Z,44.90
2018-06-02T23:55:12.147Z,50.50
2018-06-02T23:57:40.302Z,46.57
